createdAt,value
2018-12-09T00:02:05.498Z,100.00
2018-12-09T00:04:35.156Z,100.00
2018-12-09T00:07:04.317Z,100.00
2018-12-09T00:09:33.564Z,100.00
2018-12-09T00:12:02.756Z,100.00
2018-12-09T00:14:31.880Z,100.00
2018-12-09T00:17:01.036Z,100.00
2018-12-09T00:19:30.322Z,100.00
2018-12-09T00:21:59.591Z,100.00
2018-12-09T00:24:28.761Z,100.00
2018-12-09T00:26:58.195Z,100.00
2018-12-09T00:29:27.302Z,100.00
2018-12-09T00:31:56.501Z,100.00
2018-12-09T00:34:25.957Z,100.00
2018-12-09T00:36:55.192Z,100.00
2018-12-09T00:39:24.340Z,100.00
2018-12-09T00:41:53.446Z,100.00
2018-12-09T00:44:22.779Z,100.00
2018-12-09T00:46:52.009Z,100.00
2018-12-09T00:49:21.387Z,100.00
2018-12-09T00:51:50.544Z,100.00
2018-12-09T00:54:19.696Z,100.00
2018-12-09T00:56:50.205Z,100.00
2018-12-09T00:59:19.413Z,100.00
2018-12-09T01:01:48.593Z,100.00
2018-12-09T01:04:17.859Z,100.00
2018-12-09T01:06:47.217Z,100.00
2018-12-09T01:09:16.426Z,100.00
2018-12-09T01:11:45.893Z,100.00
2018-12-09T01:14:15.119Z,100.00
2018-12-09T01:16:44.219Z,100.00
2018-12-09T01:19:13.415Z,100.00
2018-12-09T01:21:42.806Z,100.00
2018-12-09T01:24:11.987Z,100.00
2018-12-09T01:26:41.132Z,100.00
2018-12-09T01:29:10.281Z,100.00
2018-12-09T01:31:39.711Z,100.00
2018-12-09T01:34:08.916Z,100.00
2018-12-09T01:36:38.227Z,100.00
2018-12-09T01:39:07.664Z,100.00
2018-12-09T01:41:37.057Z,100.00
2018-12-09T01:44:06.199Z,100.00
2018-12-09T01:46:35.450Z,100.00
2018-12-09T01:49:04.679Z,100.00
2018-12-09T01:51:33.804Z,100.00
2018-12-09T01:54:11.003Z,100.00
2018-12-09T01:56:40.262Z,100.00
2018-12-09T01:59:09.417Z,100.00
2018-12-09T02:01:38.624Z,100.00
2018-12-09T02:04:08.009Z,100.00
2018-12-09T02:06:37.260Z,100.00
2018-12-09T02:09:07.700Z,100.00
2018-12-09T02:11:37.001Z,99.05
2018-12-09T02:14:06.242Z,97.48
2018-12-09T02:16:35.791Z,94.35
2018-12-09T02:19:13.961Z,93.37
2018-12-09T02:21:43.917Z,92.52
2018-12-09T02:24:13.281Z,92.20
2018-12-09T02:26:42.685Z,90.63
2018-12-09T02:29:11.881Z,91.94
2018-12-09T02:31:40.994Z,90.54
2018-12-09T02:34:10.133Z,90.52
2018-12-09T02:36:39.839Z,89.52
2018-12-09T02:39:09.118Z,89.70
2018-12-09T02:41:38.250Z,89.21
2018-12-09T02:44:07.625Z,88.43
2018-12-09T02:46:37.190Z,88.38
2018-12-09T02:49:06.346Z,88.80
2018-12-09T02:51:35.598Z,88.17
2018-12-09T02:54:04.837Z,88.57
2018-12-09T02:56:34.086Z,88.29
2018-12-09T02:59:03.187Z,87.35
2018-12-09T03:01:32.412Z,88.14
2018-12-09T03:04:01.614Z,87.33
2018-12-09T03:06:30.882Z,86.16
2018-12-09T03:09:00.014Z,84.55
2018-12-09T03:11:29.414Z,85.24
2018-12-09T03:13:58.647Z,84.17
2018-12-09T03:16:27.861Z,84.73
2018-12-09T03:18:57.715Z,83.76
2018-12-09T03:21:26.839Z,83.96
2018-12-09T03:23:56.189Z,84.20
2018-12-09T03:26:25.380Z,85.41
2018-12-09T03:28:54.888Z,85.12
2018-12-09T03:31:24.101Z,87.21
2018-12-09T03:33:53.295Z,88.81
2018-12-09T03:36:22.474Z,89.87
2018-12-09T03:38:51.675Z,89.86
2018-12-09T03:41:20.868Z,92.54
2018-12-09T03:43:49.981Z,93.49
2018-12-09T03:46:19.075Z,94.10
2018-12-09T03:48:48.259Z,94.05
2018-12-09T03:51:17.711Z,95.69
2018-12-09T03:53:46.882Z,97.01
2018-12-09T03:56:16.014Z,95.26
2018-12-09T03:58:45.105Z,99.90
2018-12-09T04:01:14.236Z,100.00
2018-12-09T04:03:43.388Z,100.00
2018-12-09T04:06:12.531Z,100.00
2018-12-09T04:08:41.745Z,100.00
2018-12-09T04:11:12.581Z,100.00
2018-12-09T04:13:42.369Z,100.00
2018-12-09T04:16:11.507Z,100.00
2018-12-09T04:18:40.688Z,100.00
2018-12-09T04:21:09.851Z,100.00
2018-12-09T04:23:38.991Z,100.00
2018-12-09T04:26:08.220Z,100.00
2018-12-09T04:28:37.368Z,100.00
2018-12-09T04:31:06.619Z,100.00
2018-12-09T04:33:38.938Z,100.00
2018-12-09T04:36:08.144Z,100.00
2018-12-09T04:38:37.277Z,100.00
2018-12-09T04:41:06.476Z,100.00
2018-12-09T04:43:35.776Z,100.00
2018-12-09T04:46:05.765Z,100.00
2018-12-09T04:48:35.198Z,100.00
2018-12-09T04:51:04.393Z,100.00
2018-12-09T04:53:36.053Z,100.00
2018-12-09T04:56:05.193Z,100.00
2018-12-09T04:58:34.347Z,100.00
2018-12-09T05:01:03.495Z,100.00
2018-12-09T05:03:32.613Z,100.00
2018-12-09T05:06:01.754Z,100.00
2018-12-09T05:08:31.352Z,100.00
2018-12-09T05:11:00.536Z,100.00
2018-12-09T05:13:29.647Z,100.00
2018-12-09T05:15:59.238Z,100.00
2018-12-09T05:18:28.368Z,100.00
2018-12-09T05:20:57.755Z,100.00
2018-12-09T05:23:26.944Z,100.00
2018-12-09T05:25:56.244Z,100.00
2018-12-09T05:28:25.370Z,100.00
2018-12-09T05:30:54.854Z,100.00
2018-12-09T05:33:24.044Z,100.00
2018-12-09T05:35:53.312Z,100.00
2018-12-09T05:38:22.478Z,100.00
2018-12-09T05:40:52.225Z,100.00
2018-12-09T05:43:21.404Z,100.00
2018-12-09T05:45:50.739Z,100.00
2018-12-09T05:48:19.903Z,100.00
2018-12-09T05:50:49.216Z,100.00
2018-12-09T05:53:18.833Z,100.00
2018-12-09T05:55:47.987Z,100.00
2018-12-09T05:58:17.201Z,100.00
2018-12-09T06:00:46.346Z,100.00
2018-12-09T06:03:15.637Z,100.00
2018-12-09T06:05:45.052Z,100.00
2018-12-09T06:08:14.352Z,98.87
2018-12-09T06:10:43.546Z,97.22
2018-12-09T06:13:12.674Z,95.44
2018-12-09T06:15:42.213Z,94.45
2018-12-09T06:18:11.478Z,94.70
2018-12-09T06:20:40.846Z,93.88
2018-12-09T06:23:10.043Z,92.54
2018-12-09T06:25:39.199Z,91.26
2018-12-09T06:28:16.805Z,90.54
2018-12-09T06:30:45.933Z,89.54
2018-12-09T06:33:15.188Z,88.31
2018-12-09T06:35:44.428Z,88.27
2018-12-09T06:38:13.732Z,88.11
2018-12-09T06:40:43.008Z,87.93
2018-12-09T06:43:12.167Z,89.08
2018-12-09T06:45:41.389Z,87.99
2018-12-09T06:48:10.932Z,90.90
2018-12-09T06:50:40.208Z,90.08
2018-12-09T06:53:09.432Z,89.29
2018-12-09T06:55:38.566Z,89.94
2018-12-09T06:58:07.767Z,90.32
2018-12-09T07:00:37.457Z,91.52
2018-12-09T07:03:06.738Z,90.25
2018-12-09T07:05:35.837Z,89.62
2018-12-09T07:08:04.989Z,89.54
2018-12-09T07:10:34.129Z,91.21
2018-12-09T07:13:03.252Z,91.56
2018-12-09T07:15:32.518Z,92.20
2018-12-09T07:18:01.887Z,92.24
2018-12-09T07:20:31.221Z,93.30
2018-12-09T07:23:00.421Z,92.24
2018-12-09T07:25:29.727Z,92.53
2018-12-09T07:27:59.019Z,91.60
2018-12-09T07:30:28.137Z,92.66
2018-12-09T07:32:57.421Z,93.62
2018-12-09T07:35:26.825Z,94.03
2018-12-09T07:37:55.961Z,94.83
2018-12-09T07:40:25.118Z,95.21
2018-12-09T07:42:54.308Z,94.36
2018-12-09T07:45:23.871Z,93.76
2018-12-09T07:47:53.021Z,92.87
2018-12-09T07:50:22.130Z,92.21
2018-12-09T07:52:51.425Z,91.42
2018-12-09T07:55:20.719Z,90.85
2018-12-09T07:57:49.915Z,90.48
2018-12-09T08:00:19.110Z,89.68
2018-12-09T08:02:48.244Z,89.24
2018-12-09T08:05:17.420Z,88.38
2018-12-09T08:07:46.534Z,87.75
2018-12-09T08:10:15.803Z,87.33
2018-12-09T08:12:45.054Z,86.73
2018-12-09T08:15:14.165Z,86.48
2018-12-09T08:17:43.389Z,86.31
2018-12-09T08:20:12.561Z,85.66
2018-12-09T08:22:41.765Z,85.99
2018-12-09T08:25:10.976Z,85.58
2018-12-09T08:27:40.111Z,84.84
2018-12-09T08:30:09.274Z,83.93
2018-12-09T08:32:38.544Z,84.05
2018-12-09T08:35:11.195Z,82.54
2018-12-09T08:37:40.450Z,82.17
2018-12-09T08:40:09.583Z,82.04
2018-12-09T08:42:39.139Z,81.75
2018-12-09T08:45:08.283Z,81.05
2018-12-09T08:47:38.797Z,79.71
2018-12-09T08:50:08.306Z,80.46
2018-12-09T08:52:37.446Z,80.72
2018-12-09T08:55:06.903Z,80.25
2018-12-09T08:57:36.083Z,80.05
2018-12-09T09:00:05.279Z,80.31
2018-12-09T09:02:34.495Z,80.95
2018-12-09T09:05:04.712Z,80.34
2018-12-09T09:07:33.961Z,81.55
2018-12-09T09:10:03.122Z,81.43
2018-12-09T09:12:32.224Z,81.29
2018-12-09T09:15:01.403Z,81.88
2018-12-09T09:17:30.501Z,81.09
2018-12-09T09:19:59.654Z,81.24
2018-12-09T09:22:28.774Z,81.15
2018-12-09T09:24:58.103Z,80.98
2018-12-09T09:27:27.402Z,80.27
2018-12-09T09:29:56.532Z,79.88
2018-12-09T09:32:25.651Z,79.83
2018-12-09T09:34:54.778Z,79.69
2018-12-09T09:37:23.919Z,79.78
2018-12-09T09:39:53.179Z,79.14
2018-12-09T09:42:22.577Z,80.26
2018-12-09T09:44:51.687Z,78.52
2018-12-09T09:47:20.870Z,79.12
2018-12-09T09:49:50.006Z,79.00
2018-12-09T09:52:19.232Z,79.04
2018-12-09T09:54:48.464Z,78.70
2018-12-09T09:57:17.616Z,79.62
2018-12-09T09:59:46.776Z,79.59
2018-12-09T10:02:16.360Z,79.45
2018-12-09T10:04:45.485Z,79.44
2018-12-09T10:07:14.660Z,80.02
2018-12-09T10:09:43.849Z,79.50
2018-12-09T10:12:13.065Z,79.83
2018-12-09T10:14:42.251Z,79.85
2018-12-09T10:17:19.644Z,80.08
2018-12-09T10:19:49.135Z,80.61
2018-12-09T10:22:18.273Z,81.45
2018-12-09T10:24:47.433Z,80.97
2018-12-09T10:27:16.970Z,81.62
2018-12-09T10:29:46.132Z,81.65
2018-12-09T10:32:15.353Z,81.31
2018-12-09T10:34:44.469Z,82.35
2018-12-09T10:37:13.599Z,83.36
2018-12-09T10:39:45.001Z,82.55
2018-12-09T10:42:14.267Z,82.63
2018-12-09T10:44:43.401Z,82.99
2018-12-09T10:47:15.886Z,82.89
2018-12-09T10:49:45.023Z,83.47
2018-12-09T10:52:14.220Z,84.34
2018-12-09T10:54:43.320Z,84.42
2018-12-09T10:57:12.465Z,84.23
2018-12-09T10:59:41.560Z,83.75
2018-12-09T11:02:16.267Z,83.88
2018-12-09T11:04:45.667Z,83.38
2018-12-09T11:07:14.787Z,82.65
2018-12-09T11:09:43.959Z,82.47
2018-12-09T11:12:13.264Z,82.61
2018-12-09T11:14:42.561Z,83.18
2018-12-09T11:17:11.725Z,83.08
2018-12-09T11:19:40.860Z,83.08
2018-12-09T11:22:10.057Z,82.55
2018-12-09T11:24:39.255Z,82.51
2018-12-09T11:27:08.378Z,82.76
2018-12-09T11:29:37.650Z,82.32
2018-12-09T11:32:06.772Z,82.04
2018-12-09T11:34:35.942Z,82.55
2018-12-09T11:37:05.352Z,82.20
2018-12-09T11:39:34.507Z,82.42
2018-12-09T11:42:03.868Z,82.85
2018-12-09T11:44:33.452Z,83.90
2018-12-09T11:47:02.650Z,83.83
2018-12-09T11:49:31.796Z,83.27
2018-12-09T11:52:00.926Z,83.49
2018-12-09T11:54:30.117Z,83.04
2018-12-09T11:56:59.237Z,83.70
2018-12-09T11:59:28.434Z,82.43
2018-12-09T12:01:57.634Z,83.14
2018-12-09T12:04:26.807Z,83.62
2018-12-09T12:06:55.956Z,83.66
2018-12-09T12:09:25.176Z,84.20
2018-12-09T12:11:54.286Z,84.28
2018-12-09T12:14:23.433Z,84.94
2018-12-09T12:16:52.843Z,85.81
2018-12-09T12:19:22.124Z,86.66
2018-12-09T12:21:51.326Z,87.45
2018-12-09T12:24:20.917Z,88.18
2018-12-09T12:26:50.296Z,88.20
2018-12-09T12:29:19.396Z,88.62
2018-12-09T12:31:48.580Z,88.24
2018-12-09T12:34:17.719Z,88.73
2018-12-09T12:36:47.118Z,88.64
2018-12-09T12:39:16.300Z,88.40
2018-12-09T12:41:45.429Z,88.22
2018-12-09T12:44:14.746Z,88.44
2018-12-09T12:46:44.118Z,88.53
2018-12-09T12:49:13.509Z,87.72
2018-12-09T12:51:42.721Z,87.94
2018-12-09T12:54:11.887Z,88.14
2018-12-09T12:56:41.139Z,88.16
2018-12-09T12:59:12.271Z,88.88
2018-12-09T13:01:41.657Z,88.88
2018-12-09T13:04:10.928Z,88.19
2018-12-09T13:06:40.213Z,88.75
2018-12-09T13:09:09.359Z,88.83
2018-12-09T13:11:38.755Z,88.83
2018-12-09T13:14:07.994Z,90.49
2018-12-09T13:16:37.367Z,91.05
2018-12-09T13:19:06.660Z,92.79
2018-12-09T13:21:35.854Z,93.09
2018-12-09T13:24:05.057Z,94.63
2018-12-09T13:26:34.670Z,95.17
2018-12-09T13:29:03.936Z,95.90
2018-12-09T13:31:33.078Z,95.18
2018-12-09T13:34:02.292Z,95.15
2018-12-09T13:36:31.454Z,94.69
2018-12-09T13:39:00.865Z,94.09
2018-12-09T13:41:30.340Z,94.41
2018-12-09T13:43:59.766Z,93.74
2018-12-09T13:46:29.074Z,93.82
2018-12-09T13:48:58.247Z,93.83
2018-12-09T13:51:27.456Z,93.97
2018-12-09T13:53:56.562Z,93.36
2018-12-09T13:56:25.955Z,92.42
2018-12-09T13:58:55.053Z,92.34
2018-12-09T14:01:24.165Z,92.19
2018-12-09T14:03:53.451Z,91.01
2018-12-09T14:06:23.055Z,91.68
2018-12-09T14:08:52.354Z,92.12
2018-12-09T14:11:21.544Z,93.17
2018-12-09T14:13:50.779Z,93.12
2018-12-09T14:16:20.057Z,93.67
2018-12-09T14:18:49.351Z,92.06
2018-12-09T14:21:18.540Z,93.36
2018-12-09T14:23:47.711Z,93.52
2018-12-09T14:26:16.831Z,95.01
2018-12-09T14:28:46.655Z,94.69
2018-12-09T14:31:15.746Z,94.87
2018-12-09T14:33:44.900Z,94.60
2018-12-09T14:36:14.131Z,94.95
2018-12-09T14:38:43.261Z,95.33
2018-12-09T14:41:12.380Z,94.93
2018-12-09T14:43:42.379Z,94.80
2018-12-09T14:46:11.620Z,95.74
2018-12-09T14:48:40.857Z,94.88
2018-12-09T14:51:10.153Z,95.51
2018-12-09T14:53:39.452Z,94.29
2018-12-09T14:56:08.545Z,94.60
2018-12-09T14:58:37.745Z,93.96
2018-12-09T15:01:06.945Z,92.82
2018-12-09T15:03:36.200Z,93.17
2018-12-09T15:06:05.339Z,93.04
2018-12-09T15:08:34.493Z,92.46
2018-12-09T15:11:03.642Z,92.40
2018-12-09T15:13:32.743Z,92.13
2018-12-09T15:16:02.019Z,91.73
2018-12-09T15:18:31.145Z,90.97
2018-12-09T15:21:00.617Z,91.39
2018-12-09T15:23:32.898Z,89.98
2018-12-09T15:26:02.038Z,90.62
2018-12-09T15:28:31.199Z,90.39
2018-12-09T15:31:00.351Z,89.10
2018-12-09T15:33:29.696Z,89.29
2018-12-09T15:35:58.836Z,89.18
2018-12-09T15:38:28.055Z,88.56
2018-12-09T15:40:57.159Z,88.21
2018-12-09T15:43:26.601Z,88.85
2018-12-09T15:45:55.740Z,88.97
2018-12-09T15:48:24.942Z,89.27
2018-12-09T15:50:54.072Z,91.19
2018-12-09T15:53:23.356Z,91.82
2018-12-09T15:55:52.564Z,93.40
2018-12-09T15:58:21.677Z,95.86
2018-12-09T16:00:55.272Z,96.72
2018-12-09T16:03:24.439Z,98.22
2018-12-09T16:05:53.589Z,99.49
2018-12-09T16:08:22.763Z,100.00
2018-12-09T16:10:52.105Z,100.00
2018-12-09T16:13:21.369Z,100.00
2018-12-09T16:15:50.764Z,100.00
2018-12-09T16:18:19.963Z,100.00
2018-12-09T16:20:49.124Z,100.00
2018-12-09T16:23:18.309Z,100.00
2018-12-09T16:25:47.554Z,100.00
2018-12-09T16:28:16.691Z,100.00
2018-12-09T16:30:45.794Z,99.63
2018-12-09T16:33:14.922Z,99.33
2018-12-09T16:35:44.054Z,99.12
2018-12-09T16:38:13.194Z,98.89
2018-12-09T16:40:42.433Z,98.36
2018-12-09T16:43:11.867Z,98.49
2018-12-09T16:45:41.340Z,97.67
2018-12-09T16:48:10.501Z,96.90
2018-12-09T16:50:39.748Z,97.27
2018-12-09T16:53:08.920Z,96.10
2018-12-09T16:55:38.031Z,96.13
2018-12-09T16:58:07.156Z,96.53
2018-12-09T17:00:36.433Z,95.61
2018-12-09T17:03:05.917Z,96.26
2018-12-09T17:05:35.545Z,96.00
2018-12-09T17:08:04.746Z,95.16
2018-12-09T17:10:33.960Z,95.60
2018-12-09T17:13:03.096Z,96.08
2018-12-09T17:15:32.232Z,95.69
2018-12-09T17:18:01.656Z,95.68
2018-12-09T17:20:30.871Z,95.27
2018-12-09T17:23:00.167Z,95.24
2018-12-09T17:25:29.485Z,95.21
2018-12-09T17:27:58.706Z,95.10
2018-12-09T17:30:27.920Z,95.10
2018-12-09T17:32:57.038Z,96.37
2018-12-09T17:35:26.524Z,95.99
2018-12-09T17:37:55.758Z,96.13
2018-12-09T17:40:24.960Z,97.43
2018-12-09T17:42:54.158Z,96.92
2018-12-09T17:45:25.070Z,97.80
2018-12-09T17:47:54.291Z,98.05
2018-12-09T17:50:23.911Z,99.68
2018-12-09T17:52:53.174Z,100.00
2018-12-09T17:55:22.369Z,100.00
2018-12-09T17:57:56.221Z,100.00
2018-12-09T18:00:25.413Z,100.00
2018-12-09T18:02:54.704Z,100.00
2018-12-09T18:05:24.063Z,100.00
2018-12-09T18:07:53.313Z,100.00
2018-12-09T18:10:22.590Z,100.00
2018-12-09T18:12:51.822Z,100.00
2018-12-09T18:15:21.922Z,100.00
2018-12-09T18:17:51.466Z,99.56
2018-12-09T18:20:20.650Z,98.80
2018-12-09T18:22:50.263Z,98.47
2018-12-09T18:25:19.537Z,98.17
2018-12-09T18:27:48.735Z,97.51
2018-12-09T18:30:17.872Z,97.71
2018-12-09T18:32:47.159Z,98.36
2018-12-09T18:35:16.313Z,98.10
2018-12-09T18:37:46.505Z,97.66
2018-12-09T18:40:15.897Z,97.08
2018-12-09T18:42:45.024Z,97.28
2018-12-09T18:45:14.569Z,96.68
2018-12-09T18:47:43.705Z,96.28
2018-12-09T18:50:12.831Z,96.10
2018-12-09T18:52:41.956Z,95.63
2018-12-09T18:55:11.122Z,94.40
2018-12-09T18:57:40.462Z,94.23
2018-12-09T19:00:09.640Z,94.01
2018-12-09T19:02:38.821Z,94.59
2018-12-09T19:05:08.232Z,95.34
2018-12-09T19:07:37.522Z,94.83
2018-12-09T19:10:06.983Z,94.20
2018-12-09T19:12:36.303Z,94.88
2018-12-09T19:15:05.575Z,95.24
2018-12-09T19:17:34.831Z,95.54
2018-12-09T19:20:04.019Z,94.98
2018-12-09T19:22:33.176Z,95.25
2018-12-09T19:25:02.435Z,94.81
2018-12-09T19:27:31.933Z,95.19
2018-12-09T19:30:01.244Z,94.66
2018-12-09T19:32:30.624Z,95.19
2018-12-09T19:34:59.797Z,95.68
2018-12-09T19:37:29.017Z,95.25
2018-12-09T19:39:58.551Z,95.65
2018-12-09T19:42:27.834Z,95.56
2018-12-09T19:44:57.050Z,95.68
2018-12-09T19:47:26.353Z,95.74
2018-12-09T19:49:55.476Z,95.23
2018-12-09T19:52:24.880Z,94.59
2018-12-09T19:54:54.064Z,94.69
2018-12-09T19:57:23.254Z,94.74
2018-12-09T19:59:52.626Z,94.75
2018-12-09T20:02:21.847Z,94.52
2018-12-09T20:04:51.148Z,94.46
2018-12-09T20:07:20.347Z,93.74
2018-12-09T20:09:50.446Z,93.19
2018-12-09T20:12:19.607Z,94.06
2018-12-09T20:14:48.711Z,93.42
2018-12-09T20:17:17.930Z,94.18
2018-12-09T20:19:47.267Z,94.46
2018-12-09T20:22:18.942Z,94.43
2018-12-09T20:24:48.174Z,94.89
2018-12-09T20:27:17.380Z,94.87
2018-12-09T20:29:46.616Z,94.23
2018-12-09T20:32:15.746Z,94.18
2018-12-09T20:34:45.910Z,94.18
2018-12-09T20:37:15.018Z,93.88
2018-12-09T20:39:45.203Z,93.96
2018-12-09T20:42:14.473Z,94.66
2018-12-09T20:44:43.659Z,93.91
2018-12-09T20:47:13.319Z,92.87
2018-12-09T20:49:42.526Z,92.68
2018-12-09T20:52:12.581Z,93.62
2018-12-09T20:54:41.794Z,93.44
2018-12-09T20:57:10.947Z,94.03
2018-12-09T20:59:40.094Z,93.65
2018-12-09T21:02:09.391Z,93.39
2018-12-09T21:04:38.729Z,93.58
2018-12-09T21:07:07.926Z,93.38
2018-12-09T21:09:37.063Z,93.05
2018-12-09T21:12:06.484Z,92.74
2018-12-09T21:14:35.808Z,92.64
2018-12-09T21:17:05.160Z,92.80
2018-12-09T21:19:34.456Z,93.55
2018-12-09T21:22:03.971Z,93.72
2018-12-09T21:24:33.161Z,94.28
2018-12-09T21:27:02.463Z,95.09
2018-12-09T21:29:31.570Z,95.35
2018-12-09T21:32:00.970Z,95.10
2018-12-09T21:34:30.127Z,95.73
2018-12-09T21:37:01.174Z,96.67
2018-12-09T21:39:30.654Z,96.92
2018-12-09T21:41:59.767Z,97.89
2018-12-09T21:44:28.961Z,98.04
2018-12-09T21:46:58.430Z,98.55
2018-12-09T21:49:27.714Z,98.32
2018-12-09T21:51:57.013Z,99.12
2018-12-09T21:54:26.408Z,99.24
2018-12-09T21:56:55.605Z,99.20
2018-12-09T21:59:24.746Z,99.46
2018-12-09T22:01:53.897Z,98.34
2018-12-09T22:04:23.299Z,97.46
2018-12-09T22:06:52.534Z,97.39
2018-12-09T22:09:21.798Z,98.04
2018-12-09T22:11:51.101Z,98.44
2018-12-09T22:14:20.406Z,98.94
2018-12-09T22:16:49.677Z,99.26
2018-12-09T22:19:18.791Z,98.85
2018-12-09T22:21:47.994Z,97.90
2018-12-09T22:24:17.173Z,97.41
2018-12-09T22:26:46.492Z,98.16
2018-12-09T22:29:15.685Z,97.88
2018-12-09T22:31:44.976Z,96.43
2018-12-09T22:34:14.097Z,96.80
2018-12-09T22:36:43.282Z,97.28
2018-12-09T22:39:12.550Z,96.49
2018-12-09T22:41:41.766Z,96.08
2018-12-09T22:44:10.906Z,95.72
2018-12-09T22:46:40.051Z,95.61
2018-12-09T22:49:09.164Z,96.19
2018-12-09T22:51:38.457Z,95.47
2018-12-09T22:54:07.678Z,95.31
2018-12-09T22:56:36.789Z,95.21
2018-12-09T22:59:05.916Z,95.45
2018-12-09T23:01:35.194Z,96.17
2018-12-09T23:04:04.447Z,95.49
2018-12-09T23:06:33.755Z,94.90
2018-12-09T23:09:03.349Z,95.19
2018-12-09T23:11:32.476Z,94.69
2018-12-09T23:14:01.839Z,94.22
2018-12-09T23:16:30.977Z,93.54
2018-12-09T23:19:00.103Z,93.42
2018-12-09T23:21:29.205Z,93.56
2018-12-09T23:23:58.547Z,92.88
2018-12-09T23:26:27.643Z,92.97
2018-12-09T23:28:56.827Z,93.35
2018-12-09T23:31:26.017Z,92.66
2018-12-09T23:33:55.153Z,92.57
2018-12-09T23:36:24.513Z,93.14
2018-12-09T23:38:53.747Z,91.10
2018-12-09T23:41:23.158Z,90.45
2018-12-09T23:43:52.267Z,90.76
2018-12-09T23:46:21.402Z,94.81
2018-12-09T23:48:50.521Z,96.60
2018-12-09T23:51:19.641Z,100.00
2018-12-09T23:53:48.781Z,99.97
2018-12-09T23:56:17.930Z,100.00
2018-12-09T23:58:47.083Z,100.00
